Terminal Aerodrome Forecast
Issued by NWS Blacksburg, VA

Current Version | Previous Version | Graphics & Text | Print | Product List | Glossary On
Versions: 1 2 3 4 5 6 7 8 9 10 11 12 13 14 15
000
FTUS41 KRNK 191120
TAFBLF
TAF
KBLF 191120Z 1912/2012 17007KT P6SM OVC030
      TEMPO 1912/1913 -RA OVC035
     FM191700 18007KT P6SM BKN060
     FM191900 20007KT P6SM BKN035=

USA.gov is the U.S. government's official web portal to all federal, state and local government web resources and services.